sensor_id;sensor_type;location;lat;lon;timestamp;temperature;humidity
5226;DHT22;2632;51.666;7.146;2023-05-29T00:01:29;14.40;98.20
5226;DHT22;2632;51.666;7.146;2023-05-29T00:03:57;14.30;98.50
5226;DHT22;2632;51.666;7.146;2023-05-29T00:06:25;14.20;98.90
5226;DHT22;2632;51.666;7.146;2023-05-29T00:08:51;14.30;99.70
5226;DHT22;2632;51.666;7.146;2023-05-29T00:11:18;14.10;99.30
5226;DHT22;2632;51.666;7.146;2023-05-29T00:13:44;14.10;99.60
5226;DHT22;2632;51.666;7.146;2023-05-29T00:16:11;14.10;99.60
5226;DHT22;2632;51.666;7.146;2023-05-29T00:18:39;14.00;99.90
5226;DHT22;2632;51.666;7.146;2023-05-29T00:21:12;14.00;99.90
5226;DHT22;2632;51.666;7.146;2023-05-29T00:23:40;14.20;99.90
5226;DHT22;2632;51.666;7.146;2023-05-29T00:26:06;13.70;99.90
5226;DHT22;2632;51.666;7.146;2023-05-29T00:28:34;13.80;99.90
5226;DHT22;2632;51.666;7.146;2023-05-29T00:31:02;13.80;99.90
5226;DHT22;2632;51.666;7.146;2023-05-29T00:33:29;13.80;99.90
5226;DHT22;2632;51.666;7.146;2023-05-29T00:35:55;13.70;99.90
5226;DHT22;2632;51.666;7.146;2023-05-29T00:38:22;13.70;99.90
5226;DHT22;2632;51.666;7.146;2023-05-29T00:40:49;13.20;99.90
5226;DHT22;2632;51.666;7.146;2023-05-29T00:43:16;13.60;99.90
5226;DHT22;2632;51.666;7.146;2023-05-29T00:45:42;13.80;99.90
5226;DHT22;2632;51.666;7.146;2023-05-29T00:48:09;13.50;99.90
5226;DHT22;2632;51.666;7.146;2023-05-29T00:50:36;13.30;99.90
5226;DHT22;2632;51.666;7.146;2023-05-29T00:53:03;13.40;99.90
5226;DHT22;2632;51.666;7.146;2023-05-29T00:55:31;13.30;99.90
5226;DHT22;2632;51.666;7.146;2023-05-29T00:57:59;12.90;99.90
5226;DHT22;2632;51.666;7.146;2023-05-29T01:00:25;13.10;99.90
5226;DHT22;2632;51.666;7.146;2023-05-29T01:02:52;13.00;99.90
5226;DHT22;2632;51.666;7.146;2023-05-29T01:05:19;12.90;99.90
5226;DHT22;2632;51.666;7.146;2023-05-29T01:07:46;13.00;99.90
5226;DHT22;2632;51.666;7.146;2023-05-29T01:10:13;13.00;99.90
5226;DHT22;2632;51.666;7.146;2023-05-29T01:12:49;12.90;99.90
5226;DHT22;2632;51.666;7.146;2023-05-29T01:15:51;12.80;99.90
5226;DHT22;2632;51.666;7.146;2023-05-29T01:18:45;12.90;99.90
5226;DHT22;2632;51.666;7.146;2023-05-29T01:24:02;12.80;99.90
5226;DHT22;2632;51.666;7.146;2023-05-29T01:26:51;12.60;99.90
5226;DHT22;2632;51.666;7.146;2023-05-29T01:29:21;12.30;99.90
5226;DHT22;2632;51.666;7.146;2023-05-29T01:31:50;12.50;99.90
5226;DHT22;2632;51.666;7.146;2023-05-29T01:34:18;12.50;99.90
5226;DHT22;2632;51.666;7.146;2023-05-29T01:36:44;12.40;99.90
5226;DHT22;2632;51.666;7.146;2023-05-29T01:39:13;12.40;99.90
5226;DHT22;2632;51.666;7.146;2023-05-29T01:41:41;12.20;99.90
5226;DHT22;2632;51.666;7.146;2023-05-29T01:44:09;12.30;99.90
5226;DHT22;2632;51.666;7.146;2023-05-29T01:46:37;12.40;99.90
5226;DHT22;2632;51.666;7.146;2023-05-29T01:49:05;12.30;99.90
5226;DHT22;2632;51.666;7.146;2023-05-29T01:51:32;12.30;99.90
5226;DHT22;2632;51.666;7.146;2023-05-29T01:53:59;12.20;99.90
5226;DHT22;2632;51.666;7.146;2023-05-29T01:56:28;12.30;99.90
5226;DHT22;2632;51.666;7.146;2023-05-29T01:58:56;12.20;99.90
5226;DHT22;2632;51.666;7.146;2023-05-29T02:01:23;12.10;99.90
5226;DHT22;2632;51.666;7.146;2023-05-29T02:03:50;12.10;99.90
5226;DHT22;2632;51.666;7.146;2023-05-29T02:06:20;12.10;99.90
5226;DHT22;2632;51.666;7.146;2023-05-29T02:08:47;12.00;99.90
5226;DHT22;2632;51.666;7.146;2023-05-29T02:11:14;12.00;99.90
5226;DHT22;2632;51.666;7.146;2023-05-29T02:13:41;12.00;99.90
5226;DHT22;2632;51.666;7.146;2023-05-29T02:16:08;12.00;99.90
5226;DHT22;2632;51.666;7.146;2023-05-29T02:18:35;12.00;99.90
5226;DHT22;2632;51.666;7.146;2023-05-29T02:21:03;11.80;99.90
5226;DHT22;2632;51.666;7.146;2023-05-29T02:23:29;12.20;99.90
5226;DHT22;2632;51.666;7.146;2023-05-29T02:25:56;12.00;99.90
5226;DHT22;2632;51.666;7.146;2023-05-29T02:28:23;11.90;99.90
5226;DHT22;2632;51.666;7.146;2023-05-29T02:30:50;11.90;99.90
5226;DHT22;2632;51.666;7.146;2023-05-29T02:33:17;11.90;99.90
5226;DHT22;2632;51.666;7.146;2023-05-29T02:35:44;11.80;99.90
5226;DHT22;2632;51.666;7.146;2023-05-29T02:38:10;11.80;99.90
5226;DHT22;2632;51.666;7.146;2023-05-29T02:40:37;11.90;99.90
5226;DHT22;2632;51.666;7.146;2023-05-29T02:43:05;11.70;99.90
5226;DHT22;2632;51.666;7.146;2023-05-29T02:45:31;11.70;99.90
5226;DHT22;2632;51.666;7.146;2023-05-29T02:47:58;11.60;99.90
5226;DHT22;2632;51.666;7.146;2023-05-29T02:50:26;11.60;99.90
5226;DHT22;2632;51.666;7.146;2023-05-29T02:52:52;11.60;99.90
5226;DHT22;2632;51.666;7.146;2023-05-29T02:55:19;11.50;99.90
5226;DHT22;2632;51.666;7.146;2023-05-29T02:57:46;11.30;99.90
5226;DHT22;2632;51.666;7.146;2023-05-29T03:00:15;11.40;99.90
5226;DHT22;2632;51.666;7.146;2023-05-29T03:02:42;11.40;99.90
5226;DHT22;2632;51.666;7.146;2023-05-29T03:05:08;11.30;99.90
5226;DHT22;2632;51.666;7.146;2023-05-29T03:07:35;11.40;99.90
5226;DHT22;2632;51.666;7.146;2023-05-29T03:10:02;11.30;99.90
5226;DHT22;2632;51.666;7.146;2023-05-29T03:12:30;11.00;99.90
5226;DHT22;2632;51.666;7.146;2023-05-29T03:14:57;11.30;99.90
5226;DHT22;2632;51.666;7.146;2023-05-29T03:17:23;11.30;99.90
5226;DHT22;2632;51.666;7.146;2023-05-29T03:19:50;11.40;99.90
5226;DHT22;2632;51.666;7.146;2023-05-29T03:22:17;11.90;99.90
5226;DHT22;2632;51.666;7.146;2023-05-29T03:24:44;11.30;99.90
5226;DHT22;2632;51.666;7.146;2023-05-29T03:27:11;11.30;99.90
5226;DHT22;2632;51.666;7.146;2023-05-29T03:29:37;11.30;99.90
5226;DHT22;2632;51.666;7.146;2023-05-29T03:32:04;11.30;99.90
5226;DHT22;2632;51.666;7.146;2023-05-29T03:34:31;11.30;99.90
5226;DHT22;2632;51.666;7.146;2023-05-29T03:36:58;11.10;99.90
5226;DHT22;2632;51.666;7.146;2023-05-29T03:39:24;11.20;99.90
5226;DHT22;2632;51.666;7.146;2023-05-29T03:41:51;11.20;99.90
5226;DHT22;2632;51.666;7.146;2023-05-29T03:44:18;11.20;99.90
5226;DHT22;2632;51.666;7.146;2023-05-29T03:46:44;11.30;99.90
5226;DHT22;2632;51.666;7.146;2023-05-29T03:49:11;11.10;99.90
5226;DHT22;2632;51.666;7.146;2023-05-29T03:51:38;11.10;99.90
5226;DHT22;2632;51.666;7.146;2023-05-29T03:54:04;11.10;99.90
5226;DHT22;2632;51.666;7.146;2023-05-29T03:56:31;11.10;99.90
5226;DHT22;2632;51.666;7.146;2023-05-29T03:58:58;11.20;99.90
5226;DHT22;2632;51.666;7.146;2023-05-29T04:01:24;11.20;99.90
5226;DHT22;2632;51.666;7.146;2023-05-29T04:03:51;11.20;99.90
5226;DHT22;2632;51.666;7.146;2023-05-29T04:06:18;11.20;99.90
5226;DHT22;2632;51.666;7.146;2023-05-29T04:08:45;11.20;99.90
5226;DHT22;2632;51.666;7.146;2023-05-29T04:11:12;11.00;99.90
5226;DHT22;2632;51.666;7.146;2023-05-29T04:13:39;11.10;99.90
5226;DHT22;2632;51.666;7.146;2023-05-29T04:16:07;11.10;99.90
5226;DHT22;2632;51.666;7.146;2023-05-29T04:18:34;11.10;99.90
5226;DHT22;2632;51.666;7.146;2023-05-29T04:21:00;11.20;99.90
5226;DHT22;2632;51.666;7.146;2023-05-29T04:23:27;11.10;99.90
5226;DHT22;2632;51.666;7.146;2023-05-29T04:25:54;11.20;99.90
5226;DHT22;2632;51.666;7.146;2023-05-29T04:28:20;11.30;99.90
5226;DHT22;2632;51.666;7.146;2023-05-29T04:30:47;11.30;99.90
5226;DHT22;2632;51.666;7.146;2023-05-29T04:33:14;11.20;99.90
5226;DHT22;2632;51.666;7.146;2023-05-29T04:35:41;11.40;99.90
5226;DHT22;2632;51.666;7.146;2023-05-29T04:38:11;11.50;99.90
5226;DHT22;2632;51.666;7.146;2023-05-29T04:40:38;11.30;99.90
5226;DHT22;2632;51.666;7.146;2023-05-29T04:43:06;11.20;99.90
5226;DHT22;2632;51.666;7.146;2023-05-29T04:45:34;11.40;99.90
5226;DHT22;2632;51.666;7.146;2023-05-29T04:48:04;11.50;99.90
5226;DHT22;2632;51.666;7.146;2023-05-29T04:50:31;11.50;99.90
5226;DHT22;2632;51.666;7.146;2023-05-29T04:52:58;11.60;99.90
5226;DHT22;2632;51.666;7.146;2023-05-29T04:55:25;11.60;99.90
5226;DHT22;2632;51.666;7.146;2023-05-29T04:57:51;11.80;99.90
5226;DHT22;2632;51.666;7.146;2023-05-29T05:00:19;11.60;99.90
5226;DHT22;2632;51.666;7.146;2023-05-29T05:02:48;11.70;99.90
5226;DHT22;2632;51.666;7.146;2023-05-29T05:05:15;11.70;99.90
5226;DHT22;2632;51.666;7.146;2023-05-29T05:07:42;11.70;99.90
5226;DHT22;2632;51.666;7.146;2023-05-29T05:10:09;11.70;99.90
5226;DHT22;2632;51.666;7.146;2023-05-29T05:12:35;11.70;99.90
5226;DHT22;2632;51.666;7.146;2023-05-29T05:15:03;11.60;99.90
5226;DHT22;2632;51.666;7.146;2023-05-29T05:17:30;11.90;99.90
5226;DHT22;2632;51.666;7.146;2023-05-29T05:19:57;11.70;99.90
5226;DHT22;2632;51.666;7.146;2023-05-29T05:22:23;11.70;99.90
5226;DHT22;2632;51.666;7.146;2023-05-29T05:24:50;11.60;99.90
5226;DHT22;2632;51.666;7.146;2023-05-29T05:27:19;11.70;99.90
5226;DHT22;2632;51.666;7.146;2023-05-29T05:29:46;11.90;99.90
5226;DHT22;2632;51.666;7.146;2023-05-29T05:32:12;11.70;99.90
5226;DHT22;2632;51.666;7.146;2023-05-29T05:34:39;11.90;99.90
5226;DHT22;2632;51.666;7.146;2023-05-29T05:37:06;11.90;99.90
5226;DHT22;2632;51.666;7.146;2023-05-29T05:39:33;12.10;99.90
5226;DHT22;2632;51.666;7.146;2023-05-29T05:42:00;12.10;99.90
5226;DHT22;2632;51.666;7.146;2023-05-29T05:44:27;12.00;99.90
5226;DHT22;2632;51.666;7.146;2023-05-29T05:46:54;12.00;99.90
5226;DHT22;2632;51.666;7.146;2023-05-29T05:49:21;12.10;99.90
5226;DHT22;2632;51.666;7.146;2023-05-29T05:51:47;13.10;99.90
5226;DHT22;2632;51.666;7.146;2023-05-29T05:54:16;12.30;99.90
5226;DHT22;2632;51.666;7.146;2023-05-29T05:56:43;12.40;99.90
5226;DHT22;2632;51.666;7.146;2023-05-29T05:59:09;12.40;99.90
5226;DHT22;2632;51.666;7.146;2023-05-29T06:01:36;12.50;99.90
5226;DHT22;2632;51.666;7.146;2023-05-29T06:04:03;12.50;99.90
5226;DHT22;2632;51.666;7.146;2023-05-29T06:06:30;12.30;99.90
5226;DHT22;2632;51.666;7.146;2023-05-29T06:08:58;12.40;99.90
5226;DHT22;2632;51.666;7.146;2023-05-29T06:11:25;12.40;99.90
5226;DHT22;2632;51.666;7.146;2023-05-29T06:13:52;12.40;99.90
5226;DHT22;2632;51.666;7.146;2023-05-29T06:16:19;12.40;99.90
5226;DHT22;2632;51.666;7.146;2023-05-29T06:18:46;12.50;99.90
5226;DHT22;2632;51.666;7.146;2023-05-29T06:21:12;12.50;99.90
5226;DHT22;2632;51.666;7.146;2023-05-29T06:23:39;12.70;99.90
5226;DHT22;2632;51.666;7.146;2023-05-29T06:26:08;12.90;99.90
5226;DHT22;2632;51.666;7.146;2023-05-29T06:28:34;12.90;99.90
5226;DHT22;2632;51.666;7.146;2023-05-29T06:31:01;13.10;99.90
5226;DHT22;2632;51.666;7.146;2023-05-29T06:33:28;13.20;99.90
5226;DHT22;2632;51.666;7.146;2023-05-29T06:35:56;13.10;99.90
5226;DHT22;2632;51.666;7.146;2023-05-29T06:38:22;13.10;99.90
5226;DHT22;2632;51.666;7.146;2023-05-29T06:40:49;13.10;99.90
5226;DHT22;2632;51.666;7.146;2023-05-29T06:43:16;13.30;99.90
5226;DHT22;2632;51.666;7.146;2023-05-29T06:45:42;13.40;99.40
5226;DHT22;2632;51.666;7.146;2023-05-29T06:48:09;13.30;99.20
5226;DHT22;2632;51.666;7.146;2023-05-29T06:50:36;13.30;99.90
5226;DHT22;2632;51.666;7.146;2023-05-29T06:53:03;13.30;99.30
5226;DHT22;2632;51.666;7.146;2023-05-29T06:55:30;13.50;99.90
5226;DHT22;2632;51.666;7.146;2023-05-29T06:57:56;13.60;99.40
5226;DHT22;2632;51.666;7.146;2023-05-29T07:00:23;13.80;99.50
5226;DHT22;2632;51.666;7.146;2023-05-29T07:02:50;13.80;99.60
5226;DHT22;2632;51.666;7.146;2023-05-29T07:05:18;13.90;99.50
5226;DHT22;2632;51.666;7.146;2023-05-29T07:07:44;13.90;98.80
5226;DHT22;2632;51.666;7.146;2023-05-29T07:10:11;14.00;98.60
5226;DHT22;2632;51.666;7.146;2023-05-29T07:12:38;14.20;98.50
5226;DHT22;2632;51.666;7.146;2023-05-29T07:15:05;14.10;98.30
5226;DHT22;2632;51.666;7.146;2023-05-29T07:17:32;14.20;98.20
5226;DHT22;2632;51.666;7.146;2023-05-29T07:19:58;14.30;97.60
5226;DHT22;2632;51.666;7.146;2023-05-29T07:22:25;14.40;98.10
5226;DHT22;2632;51.666;7.146;2023-05-29T07:24:52;14.60;97.60
5226;DHT22;2632;51.666;7.146;2023-05-29T07:27:18;14.30;97.10
5226;DHT22;2632;51.666;7.146;2023-05-29T07:29:45;14.20;97.20
5226;DHT22;2632;51.666;7.146;2023-05-29T07:32:12;14.50;96.60
5226;DHT22;2632;51.666;7.146;2023-05-29T07:34:39;14.80;95.90
5226;DHT22;2632;51.666;7.146;2023-05-29T07:37:06;15.10;95.90
5226;DHT22;2632;51.666;7.146;2023-05-29T07:39:34;15.10;94.10
5226;DHT22;2632;51.666;7.146;2023-05-29T07:42:02;15.30;95.70
5226;DHT22;2632;51.666;7.146;2023-05-29T07:44:29;15.60;93.60
5226;DHT22;2632;51.666;7.146;2023-05-29T07:46:56;15.80;92.40
5226;DHT22;2632;51.666;7.146;2023-05-29T07:49:22;16.00;91.90
5226;DHT22;2632;51.666;7.146;2023-05-29T07:51:49;16.20;90.40
5226;DHT22;2632;51.666;7.146;2023-05-29T07:54:16;16.20;89.70
5226;DHT22;2632;51.666;7.146;2023-05-29T07:56:47;16.30;90.10
5226;DHT22;2632;51.666;7.146;2023-05-29T07:59:13;16.50;89.60
5226;DHT22;2632;51.666;7.146;2023-05-29T08:01:41;17.00;85.60
5226;DHT22;2632;51.666;7.146;2023-05-29T08:04:09;17.30;81.30
5226;DHT22;2632;51.666;7.146;2023-05-29T08:06:36;17.60;82.40
5226;DHT22;2632;51.666;7.146;2023-05-29T08:09:03;17.50;80.30
5226;DHT22;2632;51.666;7.146;2023-05-29T08:11:31;18.30;78.50
5226;DHT22;2632;51.666;7.146;2023-05-29T08:13:58;18.50;74.80
5226;DHT22;2632;51.666;7.146;2023-05-29T08:16:25;18.80;72.60
5226;DHT22;2632;51.666;7.146;2023-05-29T08:18:53;19.10;70.30
5226;DHT22;2632;51.666;7.146;2023-05-29T08:21:20;19.20;69.70
5226;DHT22;2632;51.666;7.146;2023-05-29T08:23:47;19.40;69.60
5226;DHT22;2632;51.666;7.146;2023-05-29T08:26:13;19.20;68.70
5226;DHT22;2632;51.666;7.146;2023-05-29T08:28:40;20.10;68.00
5226;DHT22;2632;51.666;7.146;2023-05-29T08:31:08;20.30;67.30
5226;DHT22;2632;51.666;7.146;2023-05-29T08:33:35;20.50;68.70
5226;DHT22;2632;51.666;7.146;2023-05-29T08:36:03;20.40;65.80
5226;DHT22;2632;51.666;7.146;2023-05-29T08:38:30;20.70;66.40
5226;DHT22;2632;51.666;7.146;2023-05-29T08:40:57;20.60;65.70
5226;DHT22;2632;51.666;7.146;2023-05-29T08:43:31;20.80;65.40
5226;DHT22;2632;51.666;7.146;2023-05-29T08:46:02;21.60;65.30
5226;DHT22;2632;51.666;7.146;2023-05-29T08:48:30;21.50;64.40
5226;DHT22;2632;51.666;7.146;2023-05-29T08:50:58;22.30;61.40
5226;DHT22;2632;51.666;7.146;2023-05-29T08:53:28;21.80;63.00
5226;DHT22;2632;51.666;7.146;2023-05-29T08:55:55;21.60;61.00
5226;DHT22;2632;51.666;7.146;2023-05-29T08:58:24;21.80;59.50
5226;DHT22;2632;51.666;7.146;2023-05-29T09:00:51;21.70;59.80
5226;DHT22;2632;51.666;7.146;2023-05-29T09:03:18;21.80;58.10
5226;DHT22;2632;51.666;7.146;2023-05-29T09:05:48;22.30;60.40
5226;DHT22;2632;51.666;7.146;2023-05-29T09:08:15;22.60;56.60
5226;DHT22;2632;51.666;7.146;2023-05-29T09:10:43;22.40;55.90
5226;DHT22;2632;51.666;7.146;2023-05-29T09:13:10;22.30;54.70
5226;DHT22;2632;51.666;7.146;2023-05-29T09:15:37;22.10;58.80
5226;DHT22;2632;51.666;7.146;2023-05-29T09:18:10;22.40;55.70
5226;DHT22;2632;51.666;7.146;2023-05-29T09:20:37;22.70;53.90
5226;DHT22;2632;51.666;7.146;2023-05-29T09:23:06;22.90;52.80
5226;DHT22;2632;51.666;7.146;2023-05-29T09:25:37;23.40;53.70
5226;DHT22;2632;51.666;7.146;2023-05-29T09:28:06;23.10;50.90
5226;DHT22;2632;51.666;7.146;2023-05-29T09:30:43;22.30;52.80
5226;DHT22;2632;51.666;7.146;2023-05-29T09:33:12;22.60;51.80
5226;DHT22;2632;51.666;7.146;2023-05-29T09:35:43;23.20;52.10
5226;DHT22;2632;51.666;7.146;2023-05-29T09:38:15;23.40;50.80
5226;DHT22;2632;51.666;7.146;2023-05-29T09:41:05;22.80;52.10
5226;DHT22;2632;51.666;7.146;2023-05-29T09:43:32;23.50;53.80
5226;DHT22;2632;51.666;7.146;2023-05-29T09:46:01;23.10;52.50
5226;DHT22;2632;51.666;7.146;2023-05-29T09:48:29;22.90;51.90
5226;DHT22;2632;51.666;7.146;2023-05-29T09:50:56;23.20;52.20
5226;DHT22;2632;51.666;7.146;2023-05-29T09:53:25;23.00;54.70
5226;DHT22;2632;51.666;7.146;2023-05-29T09:55:53;22.90;54.80
5226;DHT22;2632;51.666;7.146;2023-05-29T09:58:22;22.80;52.30
5226;DHT22;2632;51.666;7.146;2023-05-29T10:00:50;22.90;52.50
5226;DHT22;2632;51.666;7.146;2023-05-29T10:03:18;23.60;50.60
5226;DHT22;2632;51.666;7.146;2023-05-29T10:05:49;23.60;52.20
5226;DHT22;2632;51.666;7.146;2023-05-29T10:08:20;23.00;52.60
5226;DHT22;2632;51.666;7.146;2023-05-29T10:10:57;23.70;51.60
5226;DHT22;2632;51.666;7.146;2023-05-29T10:13:28;24.00;51.20
5226;DHT22;2632;51.666;7.146;2023-05-29T10:15:56;24.80;50.70
5226;DHT22;2632;51.666;7.146;2023-05-29T10:18:27;25.00;47.60
5226;DHT22;2632;51.666;7.146;2023-05-29T10:20:56;25.60;46.30
5226;DHT22;2632;51.666;7.146;2023-05-29T10:23:26;26.00;45.60
5226;DHT22;2632;51.666;7.146;2023-05-29T10:26:01;26.40;44.40
5226;DHT22;2632;51.666;7.146;2023-05-29T10:28:30;27.10;44.00
5226;DHT22;2632;51.666;7.146;2023-05-29T10:31:05;27.10;43.90
5226;DHT22;2632;51.666;7.146;2023-05-29T10:33:42;27.10;43.30
5226;DHT22;2632;51.666;7.146;2023-05-29T10:36:17;26.80;43.60
5226;DHT22;2632;51.666;7.146;2023-05-29T10:38:45;27.00;44.60
5226;DHT22;2632;51.666;7.146;2023-05-29T10:43:55;26.80;42.30
5226;DHT22;2632;51.666;7.146;2023-05-29T10:49:19;23.30;48.90
5226;DHT22;2632;51.666;7.146;2023-05-29T10:51:47;24.40;53.30
5226;DHT22;2632;51.666;7.146;2023-05-29T10:54:23;22.80;50.70
5226;DHT22;2632;51.666;7.146;2023-05-29T10:56:58;22.60;49.60
5226;DHT22;2632;51.666;7.146;2023-05-29T10:59:27;22.50;51.10
5226;DHT22;2632;51.666;7.146;2023-05-29T11:01:55;22.30;51.70
5226;DHT22;2632;51.666;7.146;2023-05-29T11:06:53;21.80;52.20
5226;DHT22;2632;51.666;7.146;2023-05-29T11:09:32;21.80;52.20
5226;DHT22;2632;51.666;7.146;2023-05-29T11:12:27;21.80;53.70
5226;DHT22;2632;51.666;7.146;2023-05-29T11:15:20;22.00;52.90
5226;DHT22;2632;51.666;7.146;2023-05-29T11:17:46;21.40;53.00
5226;DHT22;2632;51.666;7.146;2023-05-29T11:25:25;21.80;53.70
5226;DHT22;2632;51.666;7.146;2023-05-29T11:27:52;22.10;54.20
5226;DHT22;2632;51.666;7.146;2023-05-29T11:30:20;22.10;52.40
5226;DHT22;2632;51.666;7.146;2023-05-29T11:32:47;22.10;53.30
5226;DHT22;2632;51.666;7.146;2023-05-29T11:35:14;21.60;51.90
5226;DHT22;2632;51.666;7.146;2023-05-29T11:37:42;21.90;54.40
5226;DHT22;2632;51.666;7.146;2023-05-29T11:40:14;21.60;52.10
5226;DHT22;2632;51.666;7.146;2023-05-29T11:42:46;21.30;52.00
5226;DHT22;2632;51.666;7.146;2023-05-29T11:45:19;21.50;53.80
5226;DHT22;2632;51.666;7.146;2023-05-29T11:48:06;21.60;54.10
5226;DHT22;2632;51.666;7.146;2023-05-29T11:50:33;21.60;54.30
5226;DHT22;2632;51.666;7.146;2023-05-29T11:53:02;21.90;55.00
5226;DHT22;2632;51.666;7.146;2023-05-29T11:55:29;22.20;55.10
5226;DHT22;2632;51.666;7.146;2023-05-29T11:57:58;22.70;54.30
5226;DHT22;2632;51.666;7.146;2023-05-29T12:00:26;22.00;52.40
5226;DHT22;2632;51.666;7.146;2023-05-29T12:02:58;22.10;51.90
5226;DHT22;2632;51.666;7.146;2023-05-29T12:05:25;22.30;52.20
5226;DHT22;2632;51.666;7.146;2023-05-29T12:07:53;24.00;54.20
5226;DHT22;2632;51.666;7.146;2023-05-29T12:10:21;22.90;52.00
5226;DHT22;2632;51.666;7.146;2023-05-29T12:12:52;22.00;51.80
5226;DHT22;2632;51.666;7.146;2023-05-29T12:15:20;22.20;51.90
5226;DHT22;2632;51.666;7.146;2023-05-29T12:17:52;22.50;52.90
5226;DHT22;2632;51.666;7.146;2023-05-29T12:20:22;22.00;50.10
5226;DHT22;2632;51.666;7.146;2023-05-29T12:22:49;22.30;52.50
5226;DHT22;2632;51.666;7.146;2023-05-29T12:25:20;22.40;52.30
5226;DHT22;2632;51.666;7.146;2023-05-29T12:27:47;21.90;52.70
5226;DHT22;2632;51.666;7.146;2023-05-29T12:32:58;22.00;52.50
5226;DHT22;2632;51.666;7.146;2023-05-29T12:35:28;22.30;51.30
5226;DHT22;2632;51.666;7.146;2023-05-29T12:38:05;22.20;50.60
5226;DHT22;2632;51.666;7.146;2023-05-29T12:40:34;22.00;52.60
5226;DHT22;2632;51.666;7.146;2023-05-29T12:43:05;22.30;53.80
5226;DHT22;2632;51.666;7.146;2023-05-29T12:45:33;22.40;51.80
5226;DHT22;2632;51.666;7.146;2023-05-29T12:48:04;22.30;52.00
5226;DHT22;2632;51.666;7.146;2023-05-29T12:50:39;22.20;51.20
5226;DHT22;2632;51.666;7.146;2023-05-29T12:53:11;22.20;51.60
5226;DHT22;2632;51.666;7.146;2023-05-29T12:55:40;22.40;52.00
5226;DHT22;2632;51.666;7.146;2023-05-29T12:58:09;22.40;51.40
5226;DHT22;2632;51.666;7.146;2023-05-29T13:00:37;22.30;50.40
5226;DHT22;2632;51.666;7.146;2023-05-29T13:03:05;22.90;50.80
5226;DHT22;2632;51.666;7.146;2023-05-29T13:05:33;22.80;50.40
5226;DHT22;2632;51.666;7.146;2023-05-29T13:08:00;22.50;49.60
5226;DHT22;2632;51.666;7.146;2023-05-29T13:10:27;22.20;50.70
5226;DHT22;2632;51.666;7.146;2023-05-29T13:12:54;21.80;51.20
5226;DHT22;2632;51.666;7.146;2023-05-29T13:15:22;22.20;50.20
5226;DHT22;2632;51.666;7.146;2023-05-29T13:17:50;22.30;49.90
5226;DHT22;2632;51.666;7.146;2023-05-29T13:20:17;22.40;49.30
5226;DHT22;2632;51.666;7.146;2023-05-29T13:22:46;22.40;49.40
5226;DHT22;2632;51.666;7.146;2023-05-29T13:25:14;22.20;49.50
5226;DHT22;2632;51.666;7.146;2023-05-29T13:27:44;22.30;50.50
5226;DHT22;2632;51.666;7.146;2023-05-29T13:30:11;22.10;49.90
5226;DHT22;2632;51.666;7.146;2023-05-29T13:32:40;22.40;50.00
5226;DHT22;2632;51.666;7.146;2023-05-29T13:35:06;22.40;50.10
5226;DHT22;2632;51.666;7.146;2023-05-29T13:37:35;22.40;50.10
5226;DHT22;2632;51.666;7.146;2023-05-29T13:40:03;22.50;48.90
5226;DHT22;2632;51.666;7.146;2023-05-29T13:42:31;22.60;50.30
5226;DHT22;2632;51.666;7.146;2023-05-29T13:44:58;22.60;49.00
5226;DHT22;2632;51.666;7.146;2023-05-29T13:47:27;22.70;50.30
5226;DHT22;2632;51.666;7.146;2023-05-29T13:49:57;22.70;51.20
5226;DHT22;2632;51.666;7.146;2023-05-29T13:52:25;22.40;47.50
5226;DHT22;2632;51.666;7.146;2023-05-29T13:54:52;23.10;49.10
5226;DHT22;2632;51.666;7.146;2023-05-29T13:57:19;23.10;48.60
5226;DHT22;2632;51.666;7.146;2023-05-29T13:59:46;23.70;49.20
5226;DHT22;2632;51.666;7.146;2023-05-29T14:02:12;23.10;47.80
5226;DHT22;2632;51.666;7.146;2023-05-29T14:04:39;23.10;49.80
5226;DHT22;2632;51.666;7.146;2023-05-29T14:07:06;23.60;48.40
5226;DHT22;2632;51.666;7.146;2023-05-29T14:09:32;22.70;46.90
5226;DHT22;2632;51.666;7.146;2023-05-29T14:12:00;23.10;48.20
5226;DHT22;2632;51.666;7.146;2023-05-29T14:14:27;23.50;45.90
5226;DHT22;2632;51.666;7.146;2023-05-29T14:16:53;23.20;46.70
5226;DHT22;2632;51.666;7.146;2023-05-29T14:19:24;23.00;46.90
5226;DHT22;2632;51.666;7.146;2023-05-29T14:21:51;23.10;46.80
5226;DHT22;2632;51.666;7.146;2023-05-29T14:24:18;23.40;46.20
5226;DHT22;2632;51.666;7.146;2023-05-29T14:26:45;22.70;44.90
5226;DHT22;2632;51.666;7.146;2023-05-29T14:29:14;22.70;44.70
5226;DHT22;2632;51.666;7.146;2023-05-29T14:31:42;23.00;45.40
5226;DHT22;2632;51.666;7.146;2023-05-29T14:34:10;23.40;45.30
5226;DHT22;2632;51.666;7.146;2023-05-29T14:36:38;22.60;45.00
5226;DHT22;2632;51.666;7.146;2023-05-29T14:39:04;22.90;45.50
5226;DHT22;2632;51.666;7.146;2023-05-29T14:41:32;23.40;45.90
5226;DHT22;2632;51.666;7.146;2023-05-29T14:43:59;23.50;44.90
5226;DHT22;2632;51.666;7.146;2023-05-29T14:46:26;23.40;44.40
5226;DHT22;2632;51.666;7.146;2023-05-29T14:48:54;23.20;45.20
5226;DHT22;2632;51.666;7.146;2023-05-29T14:51:21;23.00;44.90
5226;DHT22;2632;51.666;7.146;2023-05-29T14:53:50;23.00;45.40
5226;DHT22;2632;51.666;7.146;2023-05-29T14:56:16;23.20;45.40
5226;DHT22;2632;51.666;7.146;2023-05-29T14:58:46;23.40;44.80
5226;DHT22;2632;51.666;7.146;2023-05-29T15:01:16;22.60;45.40
5226;DHT22;2632;51.666;7.146;2023-05-29T15:03:43;23.20;43.50
5226;DHT22;2632;51.666;7.146;2023-05-29T15:06:10;22.80;44.40
5226;DHT22;2632;51.666;7.146;2023-05-29T15:08:39;22.90;42.80
5226;DHT22;2632;51.666;7.146;2023-05-29T15:11:06;23.00;43.90
5226;DHT22;2632;51.666;7.146;2023-05-29T15:13:33;23.60;44.20
5226;DHT22;2632;51.666;7.146;2023-05-29T15:16:00;23.10;43.00
5226;DHT22;2632;51.666;7.146;2023-05-29T15:18:30;22.90;41.80
5226;DHT22;2632;51.666;7.146;2023-05-29T15:20:56;23.10;42.00
5226;DHT22;2632;51.666;7.146;2023-05-29T15:23:25;23.00;41.10
5226;DHT22;2632;51.666;7.146;2023-05-29T15:25:52;22.50;40.50
5226;DHT22;2632;51.666;7.146;2023-05-29T15:28:20;22.80;42.00
5226;DHT22;2632;51.666;7.146;2023-05-29T15:30:47;22.80;42.00
5226;DHT22;2632;51.666;7.146;2023-05-29T15:33:13;22.60;41.60
5226;DHT22;2632;51.666;7.146;2023-05-29T15:35:40;23.00;41.10
5226;DHT22;2632;51.666;7.146;2023-05-29T15:38:09;22.90;41.70
5226;DHT22;2632;51.666;7.146;2023-05-29T15:40:36;22.80;40.60
5226;DHT22;2632;51.666;7.146;2023-05-29T15:43:03;22.80;40.10
5226;DHT22;2632;51.666;7.146;2023-05-29T15:45:30;22.90;40.10
5226;DHT22;2632;51.666;7.146;2023-05-29T15:48:00;23.20;41.00
5226;DHT22;2632;51.666;7.146;2023-05-29T15:50:29;22.60;38.90
5226;DHT22;2632;51.666;7.146;2023-05-29T15:52:56;22.50;40.10
5226;DHT22;2632;51.666;7.146;2023-05-29T15:55:23;22.40;39.90
5226;DHT22;2632;51.666;7.146;2023-05-29T15:57:52;22.00;39.40
5226;DHT22;2632;51.666;7.146;2023-05-29T16:00:19;21.90;39.30
5226;DHT22;2632;51.666;7.146;2023-05-29T16:02:46;22.20;39.20
5226;DHT22;2632;51.666;7.146;2023-05-29T16:05:13;21.90;37.20
5226;DHT22;2632;51.666;7.146;2023-05-29T16:07:40;22.00;40.00
5226;DHT22;2632;51.666;7.146;2023-05-29T16:10:08;22.20;40.60
5226;DHT22;2632;51.666;7.146;2023-05-29T16:12:34;22.20;39.70
5226;DHT22;2632;51.666;7.146;2023-05-29T16:15:01;22.20;39.90
5226;DHT22;2632;51.666;7.146;2023-05-29T16:17:29;22.00;39.90
5226;DHT22;2632;51.666;7.146;2023-05-29T16:19:55;21.90;40.10
5226;DHT22;2632;51.666;7.146;2023-05-29T16:22:24;21.70;40.70
5226;DHT22;2632;51.666;7.146;2023-05-29T16:25:07;21.40;38.20
5226;DHT22;2632;51.666;7.146;2023-05-29T16:27:35;21.90;40.50